sensor_id;sensor_type;location;lat;lon;timestamp;P1;durP1;ratioP1;P2;durP2;ratioP2
26036;SDS011;13810;48.376;10.944;2023-03-09T17:26:05;3.75;;;0.80;;
26036;SDS011;13810;48.376;10.944;2023-03-09T17:26:36;3.15;;;1.10;;
26036;SDS011;13810;48.376;10.944;2023-03-09T17:27:07;2.05;;;1.40;;
26036;SDS011;13810;48.376;10.944;2023-03-09T17:27:38;2.70;;;1.38;;
26036;SDS011;13810;48.376;10.944;2023-03-09T17:28:09;5.00;;;1.35;;
26036;SDS011;13810;48.376;10.944;2023-03-09T17:28:40;2.58;;;1.42;;
26036;SDS011;13810;48.376;10.944;2023-03-09T17:29:11;4.22;;;1.23;;
26036;SDS011;13810;48.376;10.944;2023-03-09T17:29:43;1.92;;;1.05;;
26036;SDS011;13810;48.376;10.944;2023-03-09T17:30:15;2.47;;;0.80;;
26036;SDS011;13810;48.376;10.944;2023-03-09T17:30:48;3.20;;;1.25;;
26036;SDS011;13810;48.376;10.944;2023-03-09T17:31:19;3.85;;;1.10;;
26036;SDS011;13810;48.376;10.944;2023-03-09T17:31:50;2.35;;;1.08;;
26036;SDS011;13810;48.376;10.944;2023-03-09T17:32:21;2.47;;;1.00;;
26036;SDS011;13810;48.376;10.944;2023-03-09T17:32:52;3.25;;;1.27;;
26036;SDS011;13810;48.376;10.944;2023-03-09T17:33:23;4.07;;;1.20;;
26036;SDS011;13810;48.376;10.944;2023-03-09T17:33:54;2.35;;;1.10;;
26036;SDS011;13810;48.376;10.944;2023-03-09T17:34:25;3.25;;;0.90;;
26036;SDS011;13810;48.376;10.944;2023-03-09T17:34:55;3.63;;;0.88;;
26036;SDS011;13810;48.376;10.944;2023-03-09T17:35:26;3.00;;;1.02;;
26036;SDS011;13810;48.376;10.944;2023-03-09T17:35:57;7.53;;;1.38;;
26036;SDS011;13810;48.376;10.944;2023-03-09T17:36:29;1.50;;;0.73;;
26036;SDS011;13810;48.376;10.944;2023-03-09T17:37:00;3.47;;;1.15;;
26036;SDS011;13810;48.376;10.944;2023-03-09T17:37:31;5.07;;;1.10;;
26036;SDS011;13810;48.376;10.944;2023-03-09T17:38:01;4.00;;;1.00;;
26036;SDS011;13810;48.376;10.944;2023-03-09T17:38:32;5.50;;;1.15;;
26036;SDS011;13810;48.376;10.944;2023-03-09T17:39:03;2.33;;;1.20;;
26036;SDS011;13810;48.376;10.944;2023-03-09T17:39:35;2.45;;;1.00;;
26036;SDS011;13810;48.376;10.944;2023-03-09T17:40:07;5.35;;;1.40;;
26036;SDS011;13810;48.376;10.944;2023-03-09T17:40:41;2.97;;;1.08;;
26036;SDS011;13810;48.376;10.944;2023-03-09T17:41:13;1.95;;;1.15;;
26036;SDS011;13810;48.376;10.944;2023-03-09T17:41:43;3.58;;;1.15;;
26036;SDS011;13810;48.376;10.944;2023-03-09T17:42:14;3.67;;;1.45;;
26036;SDS011;13810;48.376;10.944;2023-03-09T17:42:45;4.22;;;1.15;;
26036;SDS011;13810;48.376;10.944;2023-03-09T17:43:16;3.40;;;1.35;;
26036;SDS011;13810;48.376;10.944;2023-03-09T17:43:47;8.45;;;1.65;;
26036;SDS011;13810;48.376;10.944;2023-03-09T17:44:18;2.78;;;1.17;;
26036;SDS011;13810;48.376;10.944;2023-03-09T17:44:49;6.38;;;1.10;;
26036;SDS011;13810;48.376;10.944;2023-03-09T17:45:19;1.80;;;1.10;;
26036;SDS011;13810;48.376;10.944;2023-03-09T17:46:00;6.43;;;1.20;;
26036;SDS011;13810;48.376;10.944;2023-03-09T17:46:34;4.40;;;1.20;;
26036;SDS011;13810;48.376;10.944;2023-03-09T17:47:05;10.07;;;2.25;;
26036;SDS011;13810;48.376;10.944;2023-03-09T17:47:36;4.97;;;2.25;;
26036;SDS011;13810;48.376;10.944;2023-03-09T17:48:07;8.65;;;2.67;;
26036;SDS011;13810;48.376;10.944;2023-03-09T17:48:37;7.47;;;2.50;;
26036;SDS011;13810;48.376;10.944;2023-03-09T17:49:09;11.15;;;2.38;;
26036;SDS011;13810;48.376;10.944;2023-03-09T17:49:41;4.53;;;1.90;;
26036;SDS011;13810;48.376;10.944;2023-03-09T17:50:11;8.02;;;1.83;;
26036;SDS011;13810;48.376;10.944;2023-03-09T17:50:42;5.43;;;1.73;;
26036;SDS011;13810;48.376;10.944;2023-03-09T17:51:14;4.65;;;1.90;;
26036;SDS011;13810;48.376;10.944;2023-03-09T17:51:49;5.03;;;1.83;;
26036;SDS011;13810;48.376;10.944;2023-03-09T17:52:20;2.15;;;1.15;;
26036;SDS011;13810;48.376;10.944;2023-03-09T17:52:51;4.15;;;1.80;;
26036;SDS011;13810;48.376;10.944;2023-03-09T17:53:22;3.40;;;1.60;;
26036;SDS011;13810;48.376;10.944;2023-03-09T17:53:54;3.60;;;1.80;;
26036;SDS011;13810;48.376;10.944;2023-03-09T17:54:25;6.07;;;1.38;;
26036;SDS011;13810;48.376;10.944;2023-03-09T17:54:56;5.35;;;1.48;;
26036;SDS011;13810;48.376;10.944;2023-03-09T17:55:26;6.47;;;1.50;;
26036;SDS011;13810;48.376;10.944;2023-03-09T17:55:58;4.88;;;1.40;;
26036;SDS011;13810;48.376;10.944;2023-03-09T17:56:29;5.20;;;1.38;;
26036;SDS011;13810;48.376;10.944;2023-03-09T17:57:00;4.47;;;1.58;;
26036;SDS011;13810;48.376;10.944;2023-03-09T17:57:31;4.35;;;1.08;;
26036;SDS011;13810;48.376;10.944;2023-03-09T17:58:02;4.75;;;1.70;;
26036;SDS011;13810;48.376;10.944;2023-03-09T17:58:32;3.25;;;1.10;;
26036;SDS011;13810;48.376;10.944;2023-03-09T17:59:04;2.88;;;1.20;;
26036;SDS011;13810;48.376;10.944;2023-03-09T17:59:35;4.78;;;1.10;;
26036;SDS011;13810;48.376;10.944;2023-03-09T18:00:06;4.47;;;1.65;;
26036;SDS011;13810;48.376;10.944;2023-03-09T18:00:37;3.80;;;1.40;;
26036;SDS011;13810;48.376;10.944;2023-03-09T18:01:50;2.65;;;1.40;;
26036;SDS011;13810;48.376;10.944;2023-03-09T18:02:20;4.28;;;1.58;;
26036;SDS011;13810;48.376;10.944;2023-03-09T18:02:51;4.72;;;1.50;;
26036;SDS011;13810;48.376;10.944;2023-03-09T18:03:22;5.88;;;1.73;;
26036;SDS011;13810;48.376;10.944;2023-03-09T18:03:53;6.45;;;1.70;;
26036;SDS011;13810;48.376;10.944;2023-03-09T18:04:29;4.38;;;1.48;;
26036;SDS011;13810;48.376;10.944;2023-03-09T18:05:00;5.07;;;1.25;;
26036;SDS011;13810;48.376;10.944;2023-03-09T18:05:33;5.22;;;1.73;;
26036;SDS011;13810;48.376;10.944;2023-03-09T18:06:06;2.40;;;1.10;;
26036;SDS011;13810;48.376;10.944;2023-03-09T18:06:37;6.07;;;1.35;;
26036;SDS011;13810;48.376;10.944;2023-03-09T18:07:08;3.28;;;1.42;;
26036;SDS011;13810;48.376;10.944;2023-03-09T18:07:41;7.22;;;1.60;;
26036;SDS011;13810;48.376;10.944;2023-03-09T18:08:11;3.60;;;1.60;;
26036;SDS011;13810;48.376;10.944;2023-03-09T18:08:42;3.10;;;1.45;;
26036;SDS011;13810;48.376;10.944;2023-03-09T18:09:13;6.95;;;2.17;;
26036;SDS011;13810;48.376;10.944;2023-03-09T18:09:44;5.28;;;1.65;;
26036;SDS011;13810;48.376;10.944;2023-03-09T18:10:18;4.55;;;1.52;;
26036;SDS011;13810;48.376;10.944;2023-03-09T18:10:49;4.95;;;1.50;;
26036;SDS011;13810;48.376;10.944;2023-03-09T18:11:21;4.45;;;1.58;;
26036;SDS011;13810;48.376;10.944;2023-03-09T18:11:54;4.43;;;1.50;;
26036;SDS011;13810;48.376;10.944;2023-03-09T18:12:25;4.70;;;1.55;;
26036;SDS011;13810;48.376;10.944;2023-03-09T18:12:56;3.63;;;1.50;;
26036;SDS011;13810;48.376;10.944;2023-03-09T18:13:29;6.93;;;1.90;;
26036;SDS011;13810;48.376;10.944;2023-03-09T18:14:00;6.13;;;1.70;;
26036;SDS011;13810;48.376;10.944;2023-03-09T18:14:32;4.65;;;1.63;;
26036;SDS011;13810;48.376;10.944;2023-03-09T18:15:02;5.88;;;1.70;;
26036;SDS011;13810;48.376;10.944;2023-03-09T18:15:34;3.17;;;1.58;;
26036;SDS011;13810;48.376;10.944;2023-03-09T18:16:06;6.50;;;1.73;;
26036;SDS011;13810;48.376;10.944;2023-03-09T18:16:36;3.90;;;1.67;;
26036;SDS011;13810;48.376;10.944;2023-03-09T18:17:07;5.22;;;1.90;;
26036;SDS011;13810;48.376;10.944;2023-03-09T18:17:38;3.53;;;1.60;;
26036;SDS011;13810;48.376;10.944;2023-03-09T18:18:08;3.28;;;1.58;;
26036;SDS011;13810;48.376;10.944;2023-03-09T18:18:39;3.83;;;1.42;;
26036;SDS011;13810;48.376;10.944;2023-03-09T18:19:10;3.22;;;1.40;;
26036;SDS011;13810;48.376;10.944;2023-03-09T18:19:41;9.98;;;1.88;;
26036;SDS011;13810;48.376;10.944;2023-03-09T18:20:12;6.10;;;1.80;;
26036;SDS011;13810;48.376;10.944;2023-03-09T18:20:43;3.00;;;1.40;;
26036;SDS011;13810;48.376;10.944;2023-03-09T18:21:13;2.15;;;1.05;;
26036;SDS011;13810;48.376;10.944;2023-03-09T18:21:44;2.15;;;1.17;;
26036;SDS011;13810;48.376;10.944;2023-03-09T18:22:16;3.95;;;1.40;;
26036;SDS011;13810;48.376;10.944;2023-03-09T18:22:47;7.53;;;1.48;;
26036;SDS011;13810;48.376;10.944;2023-03-09T18:23:18;4.28;;;1.52;;
26036;SDS011;13810;48.376;10.944;2023-03-09T18:23:49;8.77;;;1.42;;
26036;SDS011;13810;48.376;10.944;2023-03-09T18:24:20;5.80;;;1.23;;
26036;SDS011;13810;48.376;10.944;2023-03-09T18:24:51;5.20;;;1.50;;
26036;SDS011;13810;48.376;10.944;2023-03-09T18:25:22;4.38;;;1.50;;
26036;SDS011;13810;48.376;10.944;2023-03-09T18:25:53;3.42;;;1.35;;
26036;SDS011;13810;48.376;10.944;2023-03-09T18:26:28;1.42;;;0.88;;
26036;SDS011;13810;48.376;10.944;2023-03-09T18:27:00;5.47;;;1.48;;
26036;SDS011;13810;48.376;10.944;2023-03-09T18:27:31;3.35;;;1.27;;
26036;SDS011;13810;48.376;10.944;2023-03-09T18:28:02;3.92;;;1.40;;
26036;SDS011;13810;48.376;10.944;2023-03-09T18:28:34;2.80;;;1.23;;
26036;SDS011;13810;48.376;10.944;2023-03-09T18:29:04;3.63;;;1.10;;
26036;SDS011;13810;48.376;10.944;2023-03-09T18:29:35;4.43;;;1.50;;
26036;SDS011;13810;48.376;10.944;2023-03-09T18:30:06;5.05;;;1.30;;
26036;SDS011;13810;48.376;10.944;2023-03-09T18:30:38;3.70;;;1.30;;
26036;SDS011;13810;48.376;10.944;2023-03-09T18:31:09;3.90;;;1.50;;
26036;SDS011;13810;48.376;10.944;2023-03-09T18:31:39;5.03;;;1.40;;
26036;SDS011;13810;48.376;10.944;2023-03-09T18:32:10;2.85;;;1.20;;
26036;SDS011;13810;48.376;10.944;2023-03-09T18:32:41;2.60;;;1.20;;
26036;SDS011;13810;48.376;10.944;2023-03-09T18:33:12;2.85;;;1.00;;
26036;SDS011;13810;48.376;10.944;2023-03-09T18:33:42;1.98;;;1.00;;
26036;SDS011;13810;48.376;10.944;2023-03-09T18:34:13;3.75;;;1.02;;
26036;SDS011;13810;48.376;10.944;2023-03-09T18:34:44;2.25;;;1.20;;
26036;SDS011;13810;48.376;10.944;2023-03-09T18:35:16;7.55;;;1.30;;
26036;SDS011;13810;48.376;10.944;2023-03-09T18:35:46;4.03;;;1.30;;
26036;SDS011;13810;48.376;10.944;2023-03-09T18:36:18;7.68;;;1.60;;
26036;SDS011;13810;48.376;10.944;2023-03-09T18:36:49;6.07;;;1.92;;
26036;SDS011;13810;48.376;10.944;2023-03-09T18:37:19;6.22;;;1.95;;
26036;SDS011;13810;48.376;10.944;2023-03-09T18:37:51;8.82;;;2.25;;
26036;SDS011;13810;48.376;10.944;2023-03-09T18:38:22;4.10;;;1.92;;
26036;SDS011;13810;48.376;10.944;2023-03-09T18:38:52;3.15;;;1.95;;
26036;SDS011;13810;48.376;10.944;2023-03-09T18:39:23;8.48;;;2.25;;
26036;SDS011;13810;48.376;10.944;2023-03-09T18:39:54;6.28;;;1.85;;
26036;SDS011;13810;48.376;10.944;2023-03-09T18:40:26;6.63;;;2.58;;
26036;SDS011;13810;48.376;10.944;2023-03-09T18:40:56;5.72;;;2.25;;
26036;SDS011;13810;48.376;10.944;2023-03-09T18:41:27;4.55;;;2.22;;
26036;SDS011;13810;48.376;10.944;2023-03-09T18:41:58;5.70;;;1.90;;
26036;SDS011;13810;48.376;10.944;2023-03-09T18:42:28;5.47;;;2.15;;
26036;SDS011;13810;48.376;10.944;2023-03-09T18:42:59;4.82;;;1.92;;
26036;SDS011;13810;48.376;10.944;2023-03-09T18:43:31;5.22;;;2.28;;
26036;SDS011;13810;48.376;10.944;2023-03-09T18:44:01;7.53;;;2.90;;
26036;SDS011;13810;48.376;10.944;2023-03-09T18:44:35;5.82;;;2.60;;
26036;SDS011;13810;48.376;10.944;2023-03-09T18:45:05;6.22;;;2.50;;
26036;SDS011;13810;48.376;10.944;2023-03-09T18:45:37;6.07;;;3.10;;
26036;SDS011;13810;48.376;10.944;2023-03-09T18:46:10;8.88;;;2.13;;
26036;SDS011;13810;48.376;10.944;2023-03-09T18:46:40;5.25;;;2.33;;
26036;SDS011;13810;48.376;10.944;2023-03-09T18:47:11;6.68;;;2.80;;
26036;SDS011;13810;48.376;10.944;2023-03-09T18:47:42;6.97;;;2.53;;
26036;SDS011;13810;48.376;10.944;2023-03-09T18:48:13;7.63;;;2.58;;
26036;SDS011;13810;48.376;10.944;2023-03-09T18:48:44;5.70;;;2.10;;
26036;SDS011;13810;48.376;10.944;2023-03-09T18:49:15;6.60;;;2.60;;
26036;SDS011;13810;48.376;10.944;2023-03-09T18:49:46;3.65;;;2.42;;
26036;SDS011;13810;48.376;10.944;2023-03-09T18:50:16;11.35;;;3.10;;
26036;SDS011;13810;48.376;10.944;2023-03-09T18:50:50;8.85;;;2.60;;
26036;SDS011;13810;48.376;10.944;2023-03-09T18:51:25;9.20;;;2.75;;
26036;SDS011;13810;48.376;10.944;2023-03-09T18:51:56;7.45;;;2.72;;
26036;SDS011;13810;48.376;10.944;2023-03-09T18:52:27;5.22;;;2.30;;
26036;SDS011;13810;48.376;10.944;2023-03-09T18:52:57;6.80;;;2.10;;
26036;SDS011;13810;48.376;10.944;2023-03-09T18:53:28;4.13;;;2.35;;
26036;SDS011;13810;48.376;10.944;2023-03-09T18:54:00;7.13;;;2.50;;
26036;SDS011;13810;48.376;10.944;2023-03-09T18:54:31;12.02;;;3.08;;
26036;SDS011;13810;48.376;10.944;2023-03-09T18:55:02;3.05;;;2.20;;
26036;SDS011;13810;48.376;10.944;2023-03-09T18:55:33;8.77;;;2.35;;
26036;SDS011;13810;48.376;10.944;2023-03-09T18:56:05;4.15;;;2.47;;
26036;SDS011;13810;48.376;10.944;2023-03-09T18:56:36;8.90;;;2.60;;
26036;SDS011;13810;48.376;10.944;2023-03-09T18:57:09;10.48;;;2.88;;
26036;SDS011;13810;48.376;10.944;2023-03-09T18:57:40;9.77;;;2.80;;
26036;SDS011;13810;48.376;10.944;2023-03-09T18:58:10;9.15;;;2.78;;
26036;SDS011;13810;48.376;10.944;2023-03-09T18:58:41;5.00;;;2.90;;
26036;SDS011;13810;48.376;10.944;2023-03-09T18:59:11;6.50;;;3.00;;
26036;SDS011;13810;48.376;10.944;2023-03-09T18:59:42;7.97;;;2.50;;
26036;SDS011;13810;48.376;10.944;2023-03-09T19:00:13;5.70;;;2.60;;
26036;SDS011;13810;48.376;10.944;2023-03-09T19:00:44;5.65;;;2.70;;
26036;SDS011;13810;48.376;10.944;2023-03-09T19:01:15;4.75;;;2.40;;
26036;SDS011;13810;48.376;10.944;2023-03-09T19:01:46;9.95;;;2.80;;
26036;SDS011;13810;48.376;10.944;2023-03-09T19:02:16;7.78;;;2.58;;
26036;SDS011;13810;48.376;10.944;2023-03-09T19:02:47;8.02;;;3.33;;
26036;SDS011;13810;48.376;10.944;2023-03-09T19:03:18;6.45;;;2.65;;
26036;SDS011;13810;48.376;10.944;2023-03-09T19:03:49;8.57;;;3.42;;
26036;SDS011;13810;48.376;10.944;2023-03-09T19:04:19;8.05;;;2.55;;
26036;SDS011;13810;48.376;10.944;2023-03-09T19:04:50;5.07;;;2.80;;
26036;SDS011;13810;48.376;10.944;2023-03-09T19:05:20;9.43;;;2.80;;
26036;SDS011;13810;48.376;10.944;2023-03-09T19:06:05;3.72;;;2.28;;
26036;SDS011;13810;48.376;10.944;2023-03-09T19:06:40;5.93;;;3.00;;
26036;SDS011;13810;48.376;10.944;2023-03-09T19:07:11;7.82;;;2.80;;
26036;SDS011;13810;48.376;10.944;2023-03-09T19:07:43;5.78;;;2.10;;
26036;SDS011;13810;48.376;10.944;2023-03-09T19:08:14;8.32;;;2.50;;
26036;SDS011;13810;48.376;10.944;2023-03-09T19:08:45;5.82;;;2.40;;
26036;SDS011;13810;48.376;10.944;2023-03-09T19:09:16;3.75;;;2.42;;
26036;SDS011;13810;48.376;10.944;2023-03-09T19:09:50;4.57;;;2.38;;
26036;SDS011;13810;48.376;10.944;2023-03-09T19:10:21;4.65;;;2.45;;
26036;SDS011;13810;48.376;10.944;2023-03-09T19:10:52;6.97;;;2.58;;
26036;SDS011;13810;48.376;10.944;2023-03-09T19:11:22;5.72;;;2.83;;
26036;SDS011;13810;48.376;10.944;2023-03-09T19:11:54;6.68;;;2.85;;
26036;SDS011;13810;48.376;10.944;2023-03-09T19:12:24;9.48;;;2.80;;
26036;SDS011;13810;48.376;10.944;2023-03-09T19:12:55;5.47;;;2.60;;
26036;SDS011;13810;48.376;10.944;2023-03-09T19:13:25;7.07;;;2.72;;
26036;SDS011;13810;48.376;10.944;2023-03-09T19:13:56;5.43;;;2.72;;
26036;SDS011;13810;48.376;10.944;2023-03-09T19:14:27;7.82;;;2.78;;
26036;SDS011;13810;48.376;10.944;2023-03-09T19:14:58;4.68;;;2.78;;
26036;SDS011;13810;48.376;10.944;2023-03-09T19:15:28;5.63;;;2.80;;
26036;SDS011;13810;48.376;10.944;2023-03-09T19:16:01;8.65;;;2.63;;
26036;SDS011;13810;48.376;10.944;2023-03-09T19:16:34;17.25;;;3.30;;
26036;SDS011;13810;48.376;10.944;2023-03-09T19:17:05;6.57;;;2.80;;
26036;SDS011;13810;48.376;10.944;2023-03-09T19:17:36;8.05;;;2.97;;
26036;SDS011;13810;48.376;10.944;2023-03-09T19:18:07;11.73;;;2.88;;
26036;SDS011;13810;48.376;10.944;2023-03-09T19:18:37;8.27;;;2.50;;
26036;SDS011;13810;48.376;10.944;2023-03-09T19:19:08;13.00;;;3.33;;
26036;SDS011;13810;48.376;10.944;2023-03-09T19:19:39;7.03;;;2.85;;
26036;SDS011;13810;48.376;10.944;2023-03-09T19:20:09;4.63;;;2.83;;
26036;SDS011;13810;48.376;10.944;2023-03-09T19:20:40;7.82;;;3.00;;
26036;SDS011;13810;48.376;10.944;2023-03-09T19:21:14;15.40;;;3.58;;
26036;SDS011;13810;48.376;10.944;2023-03-09T19:21:46;6.97;;;3.55;;
26036;SDS011;13810;48.376;10.944;2023-03-09T19:22:17;8.15;;;3.10;;
26036;SDS011;13810;48.376;10.944;2023-03-09T19:22:48;6.72;;;3.10;;
26036;SDS011;13810;48.376;10.944;2023-03-09T19:23:19;9.25;;;3.75;;
26036;SDS011;13810;48.376;10.944;2023-03-09T19:23:53;10.60;;;3.33;;
26036;SDS011;13810;48.376;10.944;2023-03-09T19:24:25;7.00;;;3.05;;
26036;SDS011;13810;48.376;10.944;2023-03-09T19:24:56;9.60;;;3.03;;
26036;SDS011;13810;48.376;10.944;2023-03-09T19:25:27;8.40;;;2.65;;
26036;SDS011;13810;48.376;10.944;2023-03-09T19:25:58;11.88;;;2.95;;
26036;SDS011;13810;48.376;10.944;2023-03-09T19:26:28;8.85;;;3.78;;
26036;SDS011;13810;48.376;10.944;2023-03-09T19:27:00;9.52;;;3.53;;
26036;SDS011;13810;48.376;10.944;2023-03-09T19:27:31;8.32;;;3.10;;
26036;SDS011;13810;48.376;10.944;2023-03-09T19:28:01;7.95;;;3.47;;
26036;SDS011;13810;48.376;10.944;2023-03-09T19:28:33;11.50;;;3.40;;
26036;SDS011;13810;48.376;10.944;2023-03-09T19:29:04;10.07;;;3.00;;
26036;SDS011;13810;48.376;10.944;2023-03-09T19:29:36;10.15;;;2.97;;
26036;SDS011;13810;48.376;10.944;2023-03-09T19:30:06;7.45;;;3.20;;
26036;SDS011;13810;48.376;10.944;2023-03-09T19:30:37;11.43;;;3.30;;
26036;SDS011;13810;48.376;10.944;2023-03-09T19:31:09;11.70;;;3.35;;
26036;SDS011;13810;48.376;10.944;2023-03-09T19:31:41;5.63;;;3.03;;
26036;SDS011;13810;48.376;10.944;2023-03-09T19:32:13;10.98;;;3.65;;
26036;SDS011;13810;48.376;10.944;2023-03-09T19:32:44;7.50;;;3.13;;
26036;SDS011;13810;48.376;10.944;2023-03-09T19:33:16;7.25;;;3.10;;
26036;SDS011;13810;48.376;10.944;2023-03-09T19:33:47;7.97;;;3.33;;
26036;SDS011;13810;48.376;10.944;2023-03-09T19:34:18;13.40;;;3.72;;
26036;SDS011;13810;48.376;10.944;2023-03-09T19:34:48;9.13;;;3.88;;
26036;SDS011;13810;48.376;10.944;2023-03-09T19:35:19;10.07;;;3.25;;
26036;SDS011;13810;48.376;10.944;2023-03-09T19:35:53;9.73;;;3.38;;
26036;SDS011;13810;48.376;10.944;2023-03-09T19:36:28;6.18;;;3.13;;
26036;SDS011;13810;48.376;10.944;2023-03-09T19:37:01;7.70;;;4.00;;
26036;SDS011;13810;48.376;10.944;2023-03-09T19:37:32;8.70;;;4.32;;
26036;SDS011;13810;48.376;10.944;2023-03-09T19:38:02;12.93;;;4.93;;
26036;SDS011;13810;48.376;10.944;2023-03-09T19:38:33;9.88;;;4.68;;
26036;SDS011;13810;48.376;10.944;2023-03-09T19:39:04;15.60;;;4.88;;
26036;SDS011;13810;48.376;10.944;2023-03-09T19:39:35;17.80;;;5.47;;
26036;SDS011;13810;48.376;10.944;2023-03-09T19:40:09;12.23;;;4.72;;
26036;SDS011;13810;48.376;10.944;2023-03-09T19:40:42;12.93;;;4.80;;
26036;SDS011;13810;48.376;10.944;2023-03-09T19:41:14;11.93;;;5.15;;
26036;SDS011;13810;48.376;10.944;2023-03-09T19:41:46;12.23;;;4.65;;
26036;SDS011;13810;48.376;10.944;2023-03-09T19:42:18;12.80;;;4.30;;
26036;SDS011;13810;48.376;10.944;2023-03-09T19:42:48;10.82;;;4.22;;
26036;SDS011;13810;48.376;10.944;2023-03-09T19:43:21;15.35;;;4.72;;
26036;SDS011;13810;48.376;10.944;2023-03-09T19:43:51;10.63;;;4.60;;
26036;SDS011;13810;48.376;10.944;2023-03-09T19:44:23;9.27;;;3.58;;
26036;SDS011;13810;48.376;10.944;2023-03-09T19:44:54;10.38;;;4.45;;
26036;SDS011;13810;48.376;10.944;2023-03-09T19:45:25;15.57;;;4.53;;
26036;SDS011;13810;48.376;10.944;2023-03-09T19:45:57;10.77;;;4.25;;
26036;SDS011;13810;48.376;10.944;2023-03-09T19:46:29;10.50;;;4.57;;
26036;SDS011;13810;48.376;10.944;2023-03-09T19:47:00;15.32;;;3.83;;
26036;SDS011;13810;48.376;10.944;2023-03-09T19:47:30;10.50;;;4.00;;
26036;SDS011;13810;48.376;10.944;2023-03-09T19:48:01;9.02;;;3.97;;
26036;SDS011;13810;48.376;10.944;2023-03-09T19:48:32;9.20;;;3.97;;
26036;SDS011;13810;48.376;10.944;2023-03-09T19:49:04;8.80;;;3.53;;
26036;SDS011;13810;48.376;10.944;2023-03-09T19:49:35;9.13;;;4.38;;
26036;SDS011;13810;48.376;10.944;2023-03-09T19:50:07;10.65;;;4.38;;
26036;SDS011;13810;48.376;10.944;2023-03-09T19:50:38;10.20;;;4.35;;
26036;SDS011;13810;48.376;10.944;2023-03-09T19:51:10;10.18;;;4.38;;
26036;SDS011;13810;48.376;10.944;2023-03-09T19:51:42;9.93;;;4.40;;
26036;SDS011;13810;48.376;10.944;2023-03-09T19:52:13;8.95;;;4.35;;
26036;SDS011;13810;48.376;10.944;2023-03-09T19:52:43;11.35;;;4.57;;
26036;SDS011;13810;48.376;10.944;2023-03-09T19:53:14;12.07;;;4.78;;
26036;SDS011;13810;48.376;10.944;2023-03-09T19:53:46;10.65;;;4.05;;
26036;SDS011;13810;48.376;10.944;2023-03-09T19:54:21;10.90;;;5.65;;
26036;SDS011;13810;48.376;10.944;2023-03-09T19:54:52;12.77;;;5.03;;
26036;SDS011;13810;48.376;10.944;2023-03-09T19:55:23;12.02;;;4.45;;
26036;SDS011;13810;48.376;10.944;2023-03-09T19:55:54;9.05;;;5.07;;
26036;SDS011;13810;48.376;10.944;2023-03-09T19:56:56;11.20;;;4.78;;
26036;SDS011;13810;48.376;10.944;2023-03-09T19:57:27;10.18;;;5.10;;
26036;SDS011;13810;48.376;10.944;2023-03-09T19:57:58;9.45;;;4.60;;
26036;SDS011;13810;48.376;10.944;2023-03-09T19:58:28;10.70;;;4.93;;
26036;SDS011;13810;48.376;10.944;2023-03-09T19:58:59;8.07;;;5.18;;
26036;SDS011;13810;48.376;10.944;2023-03-09T19:59:30;12.07;;;5.88;;
26036;SDS011;13810;48.376;10.944;2023-03-09T20:00:01;14.25;;;5.60;;
26036;SDS011;13810;48.376;10.944;2023-03-09T20:00:32;11.80;;;5.70;;
26036;SDS011;13810;48.376;10.944;2023-03-09T20:01:11;10.07;;;6.18;;
26036;SDS011;13810;48.376;10.944;2023-03-09T20:01:46;13.48;;;5.90;;
26036;SDS011;13810;48.376;10.944;2023-03-09T20:02:18;14.27;;;6.13;;
26036;SDS011;13810;48.376;10.944;2023-03-09T20:02:49;10.82;;;5.63;;
26036;SDS011;13810;48.376;10.944;2023-03-09T20:03:20;11.32;;;5.82;;
26036;SDS011;13810;48.376;10.944;2023-03-09T20:03:51;12.75;;;6.22;;
26036;SDS011;13810;48.376;10.944;2023-03-09T20:04:23;13.50;;;5.40;;
26036;SDS011;13810;48.376;10.944;2023-03-09T20:04:55;12.32;;;6.57;;
26036;SDS011;13810;48.376;10.944;2023-03-09T20:05:26;11.82;;;5.05;;
26036;SDS011;13810;48.376;10.944;2023-03-09T20:06:00;10.57;;;5.65;;
26036;SDS011;13810;48.376;10.944;2023-03-09T20:06:34;11.00;;;5.55;;
26036;SDS011;13810;48.376;10.944;2023-03-09T20:07:07;11.05;;;6.25;;
26036;SDS011;13810;48.376;10.944;2023-03-09T20:07:37;14.50;;;6.22;;
26036;SDS011;13810;48.376;10.944;2023-03-09T20:08:08;13.35;;;5.80;;
26036;SDS011;13810;48.376;10.944;2023-03-09T20:08:39;15.90;;;6.20;;
26036;SDS011;13810;48.376;10.944;2023-03-09T20:09:09;11.50;;;5.40;;
26036;SDS011;13810;48.376;10.944;2023-03-09T20:09:40;13.48;;;5.22;;
26036;SDS011;13810;48.376;10.944;2023-03-09T20:10:11;10.57;;;5.07;;
26036;SDS011;13810;48.376;10.944;2023-03-09T20:10:42;14.30;;;5.78;;
26036;SDS011;13810;48.376;10.944;2023-03-09T20:11:17;12.35;;;6.82;;
26036;SDS011;13810;48.376;10.944;2023-03-09T20:11:49;15.13;;;6.65;;
26036;SDS011;13810;48.376;10.944;2023-03-09T20:12:20;17.33;;;7.82;;
26036;SDS011;13810;48.376;10.944;2023-03-09T20:12:53;21.08;;;8.90;;
26036;SDS011;13810;48.376;10.944;2023-03-09T20:13:24;16.42;;;7.63;;
26036;SDS011;13810;48.376;10.944;2023-03-09T20:13:55;17.23;;;7.50;;
26036;SDS011;13810;48.376;10.944;2023-03-09T20:14:26;16.58;;;7.47;;
26036;SDS011;13810;48.376;10.944;2023-03-09T20:14:58;21.35;;;8.45;;
26036;SDS011;13810;48.376;10.944;2023-03-09T20:15:29;15.05;;;7.40;;
26036;SDS011;13810;48.376;10.944;2023-03-09T20:16:00;28.77;;;9.27;;
26036;SDS011;13810;48.376;10.944;2023-03-09T20:16:32;26.00;;;9.15;;
26036;SDS011;13810;48.376;10.944;2023-03-09T20:17:04;16.88;;;7.20;;
26036;SDS011;13810;48.376;10.944;2023-03-09T20:17:35;16.08;;;6.45;;
26036;SDS011;13810;48.376;10.944;2023-03-09T20:18:06;14.68;;;6.55;;
26036;SDS011;13810;48.376;10.944;2023-03-09T20:18:37;14.45;;;5.40;;
26036;SDS011;13810;48.376;10.944;2023-03-09T20:19:10;15.27;;;5.15;;
26036;SDS011;13810;48.376;10.944;2023-03-09T20:19:42;12.88;;;4.68;;
26036;SDS011;13810;48.376;10.944;2023-03-09T20:20:13;11.13;;;4.40;;
26036;SDS011;13810;48.376;10.944;2023-03-09T20:20:44;8.43;;;4.22;;
26036;SDS011;13810;48.376;10.944;2023-03-09T20:21:14;11.57;;;4.85;;
26036;SDS011;13810;48.376;10.944;2023-03-09T20:21:45;17.80;;;5.55;;
26036;SDS011;13810;48.376;10.944;2023-03-09T20:22:16;14.48;;;5.80;;
26036;SDS011;13810;48.376;10.944;2023-03-09T20:22:46;8.10;;;4.57;;
26036;SDS011;13810;48.376;10.944;2023-03-09T20:23:17;14.88;;;4.47;;
26036;SDS011;13810;48.376;10.944;2023-03-09T20:23:47;9.50;;;4.80;;
26036;SDS011;13810;48.376;10.944;2023-03-09T20:24:19;16.90;;;6.30;;
26036;SDS011;13810;48.376;10.944;2023-03-09T20:24:50;12.32;;;5.15;;
26036;SDS011;13810;48.376;10.944;2023-03-09T20:25:20;15.45;;;5.95;;
26036;SDS011;13810;48.376;10.944;2023-03-09T20:25:53;19.08;;;7.18;;
26036;SDS011;13810;48.376;10.944;2023-03-09T20:26:25;12.15;;;5.88;;
26036;SDS011;13810;48.376;10.944;2023-03-09T20:26:57;13.95;;;5.97;;
26036;SDS011;13810;48.376;10.944;2023-03-09T20:27:28;19.58;;;6.22;;
26036;SDS011;13810;48.376;10.944;2023-03-09T20:27:59;13.07;;;6.20;;
26036;SDS011;13810;48.376;10.944;2023-03-09T20:28:30;13.52;;;5.38;;
26036;SDS011;13810;48.376;10.944;2023-03-09T20:29:02;9.88;;;5.13;;
26036;SDS011;13810;48.376;10.944;2023-03-09T20:29:34;10.85;;;4.45;;
26036;SDS011;13810;48.376;10.944;2023-03-09T20:30:05;13.77;;;4.90;;
26036;SDS011;13810;48.376;10.944;2023-03-09T20:30:39;12.00;;;4.32;;
26036;SDS011;13810;48.376;10.944;2023-03-09T20:31:18;15.55;;;4.97;;
26036;SDS011;13810;48.376;10.944;2023-03-09T20:31:54;12.88;;;4.85;;
26036;SDS011;13810;48.376;10.944;2023-03-09T20:32:25;10.05;;;4.65;;
26036;SDS011;13810;48.376;10.944;2023-03-09T20:32:59;10.18;;;5.18;;